createdAt,value
2018-04-07T00:00:17.020Z,5.40
2018-04-07T00:02:44.624Z,4.97
2018-04-07T00:05:12.201Z,5.00
2018-04-07T00:07:39.808Z,4.90
2018-04-07T00:10:07.383Z,5.33
2018-04-07T00:12:34.980Z,5.13
2018-04-07T00:15:03.322Z,5.00
2018-04-07T00:17:30.923Z,4.73
2018-04-07T00:19:58.551Z,4.73
2018-04-07T00:22:26.147Z,4.63
2018-04-07T00:24:54.540Z,5.60
2018-04-07T00:27:22.144Z,5.03
2018-04-07T00:29:50.535Z,4.77
2018-04-07T00:32:18.110Z,4.87
2018-04-07T00:34:45.711Z,5.03
2018-04-07T00:37:13.344Z,4.53
2018-04-07T00:39:40.947Z,4.93
2018-04-07T00:42:08.543Z,4.50
2018-04-07T00:44:36.155Z,4.70
2018-04-07T00:47:04.528Z,4.80
2018-04-07T00:49:32.095Z,4.77
2018-04-07T00:51:59.700Z,5.10
2018-04-07T00:54:27.332Z,4.50
2018-04-07T00:56:55.673Z,4.73
2018-04-07T00:59:23.272Z,4.60
2018-04-07T01:01:50.843Z,4.63
2018-04-07T01:04:18.440Z,4.43
2018-04-07T01:06:46.012Z,4.60
2018-04-07T01:09:13.608Z,4.33
2018-04-07T01:11:41.221Z,4.70
2018-04-07T01:14:08.790Z,5.20
2018-04-07T01:16:36.390Z,4.47
2018-04-07T01:19:03.960Z,5.13
2018-04-07T01:21:31.555Z,4.00
2018-04-07T01:23:59.139Z,4.83
2018-04-07T01:26:26.739Z,4.53
2018-04-07T01:28:54.339Z,4.80
2018-04-07T01:31:22.683Z,5.60
2018-04-07T01:33:50.279Z,4.20
2018-04-07T01:36:17.851Z,4.53
2018-04-07T01:38:45.457Z,4.90
2018-04-07T01:41:13.036Z,4.93
2018-04-07T01:43:40.638Z,4.60
2018-04-07T01:46:08.238Z,4.90
2018-04-07T01:48:35.807Z,5.47
2018-04-07T01:51:03.412Z,5.00
2018-04-07T01:53:31.747Z,5.00
2018-04-07T01:55:59.355Z,4.90
2018-04-07T01:58:26.930Z,4.70
2018-04-07T02:00:54.528Z,4.80
2018-04-07T02:03:22.142Z,4.70
2018-04-07T02:05:49.927Z,4.57
2018-04-07T02:08:17.561Z,5.00
2018-04-07T02:10:45.131Z,4.80
2018-04-07T02:13:13.498Z,4.63
2018-04-07T02:15:41.070Z,5.00
2018-04-07T02:18:08.664Z,5.00
2018-04-07T02:20:36.272Z,5.37
2018-04-07T02:23:03.847Z,5.23
2018-04-07T02:25:31.458Z,4.77
2018-04-07T02:27:59.791Z,5.00
2018-04-07T02:30:27.387Z,5.33
2018-04-07T02:32:54.969Z,4.97
2018-04-07T02:35:22.577Z,5.00
2018-04-07T02:37:50.183Z,4.97
2018-04-07T02:40:18.531Z,4.93
2018-04-07T02:42:46.140Z,4.93
2018-04-07T02:45:13.725Z,4.83
2018-04-07T02:47:41.327Z,5.67
2018-04-07T02:50:08.901Z,5.40
2018-04-07T02:52:36.505Z,5.30
2018-04-07T02:55:04.109Z,5.77
2018-04-07T02:57:31.680Z,4.90
2018-04-07T02:59:59.280Z,4.87
2018-04-07T03:02:26.847Z,5.03
2018-04-07T03:04:54.448Z,4.33
2018-04-07T03:07:22.020Z,4.93
2018-04-07T03:09:51.127Z,4.40
2018-04-07T03:12:18.727Z,4.53
2018-04-07T03:14:46.297Z,4.80
2018-04-07T03:17:13.899Z,5.30
2018-04-07T03:19:41.472Z,5.23
2018-04-07T03:22:09.076Z,5.00
2018-04-07T03:24:36.678Z,4.80
2018-04-07T03:27:05.012Z,4.87
2018-04-07T03:29:32.611Z,4.53
2018-04-07T03:32:00.184Z,4.90
2018-04-07T03:34:27.787Z,4.77
2018-04-07T03:36:55.359Z,5.10
2018-04-07T03:39:24.107Z,5.70
2018-04-07T03:41:51.707Z,5.43
2018-04-07T03:44:19.284Z,5.03
2018-04-07T03:46:46.892Z,5.83
2018-04-07T03:49:15.256Z,5.40
2018-04-07T03:51:42.868Z,5.57
2018-04-07T03:54:10.436Z,5.80
2018-04-07T03:56:38.064Z,5.73
2018-04-07T03:59:05.688Z,5.83
2018-04-07T04:01:33.259Z,5.17
2018-04-07T04:04:00.887Z,5.80
2018-04-07T04:06:28.462Z,5.90
2018-04-07T04:08:56.064Z,5.37
2018-04-07T04:11:24.432Z,5.53
2018-04-07T04:13:52.016Z,8.63
2018-04-07T04:16:19.621Z,7.57
2018-04-07T04:18:47.987Z,8.17
2018-04-07T04:21:15.591Z,8.37
2018-04-07T04:23:43.182Z,7.07
2018-04-07T04:26:10.791Z,7.60
2018-04-07T04:28:39.160Z,6.97
2018-04-07T04:31:06.763Z,7.37
2018-04-07T04:33:34.358Z,7.03
2018-04-07T04:36:01.927Z,6.77
2018-04-07T04:38:29.535Z,7.37
2018-04-07T04:40:57.872Z,7.00
2018-04-07T04:43:25.475Z,6.33
2018-04-07T04:45:53.076Z,7.10
2018-04-07T04:48:20.644Z,6.83
2018-04-07T04:50:48.251Z,6.50
2018-04-07T04:53:15.824Z,5.90
2018-04-07T04:55:43.422Z,6.07
2018-04-07T04:58:11.289Z,6.47
2018-04-07T05:00:38.899Z,6.00
2018-04-07T05:03:06.472Z,6.17
2018-04-07T05:05:34.076Z,6.07
2018-04-07T05:08:01.680Z,5.67
2018-04-07T05:10:29.251Z,6.23
2018-04-07T05:12:56.853Z,6.03
2018-04-07T05:15:24.833Z,5.57
2018-04-07T05:17:52.473Z,5.63
2018-04-07T05:20:21.127Z,5.83
2018-04-07T05:22:48.728Z,5.77
2018-04-07T05:25:16.327Z,5.40
2018-04-07T05:27:43.899Z,5.83
2018-04-07T05:30:11.788Z,6.00
2018-04-07T05:32:39.355Z,5.43
2018-04-07T05:35:08.095Z,5.07
2018-04-07T05:37:35.663Z,6.03
2018-04-07T05:40:04.719Z,5.40
2018-04-07T05:42:32.332Z,5.40
2018-04-07T05:44:59.907Z,4.93
2018-04-07T05:47:27.507Z,5.13
2018-04-07T05:49:55.078Z,5.47
2018-04-07T05:52:22.683Z,5.63
2018-04-07T05:54:50.251Z,5.90
2018-04-07T05:57:17.850Z,6.27
2018-04-07T05:59:45.452Z,5.87
2018-04-07T06:02:13.032Z,6.10
2018-04-07T06:04:40.639Z,6.73
2018-04-07T06:07:09.747Z,6.20
2018-04-07T06:09:37.349Z,6.53
2018-04-07T06:12:04.932Z,7.60
2018-04-07T06:14:32.536Z,6.63
2018-04-07T06:17:00.136Z,6.47
2018-04-07T06:19:27.719Z,6.13
2018-04-07T06:21:55.326Z,6.80
2018-04-07T06:24:22.904Z,6.70
2018-04-07T06:26:50.508Z,7.20
2018-04-07T06:29:18.114Z,6.13
2018-04-07T06:31:46.492Z,7.13
2018-04-07T06:34:14.090Z,5.77
2018-04-07T06:36:41.664Z,6.50
2018-04-07T06:39:09.262Z,6.77
2018-04-07T06:41:36.835Z,6.67
2018-04-07T06:44:04.468Z,6.40
2018-04-07T06:46:32.823Z,6.23
2018-04-07T06:49:00.423Z,5.47
2018-04-07T06:51:28.024Z,5.80
2018-04-07T06:53:55.595Z,5.30
2018-04-07T06:56:23.196Z,5.90
2018-04-07T06:58:50.766Z,5.37
2018-04-07T07:01:18.372Z,4.57
2018-04-07T07:03:45.952Z,4.83
2018-04-07T07:06:13.553Z,5.33
2018-04-07T07:08:41.188Z,4.80
2018-04-07T07:11:09.556Z,5.00
2018-04-07T07:13:37.159Z,4.67
2018-04-07T07:16:04.728Z,5.00
2018-04-07T07:18:32.360Z,4.90
2018-04-07T07:21:00.760Z,4.47
2018-04-07T07:23:28.368Z,4.80
2018-04-07T07:25:56.740Z,4.90
2018-04-07T07:28:25.080Z,4.70
2018-04-07T07:30:52.712Z,4.57
2018-04-07T07:33:20.307Z,4.80
2018-04-07T07:35:47.910Z,4.83
2018-04-07T07:38:15.497Z,4.20
2018-04-07T07:40:43.105Z,4.57
2018-04-07T07:43:10.708Z,3.97
2018-04-07T07:45:38.284Z,5.40
2018-04-07T07:48:05.886Z,6.10
2018-04-07T07:50:33.468Z,6.00
2018-04-07T07:53:01.075Z,5.70
2018-04-07T07:55:29.412Z,6.37
2018-04-07T07:57:57.010Z,6.23
2018-04-07T08:00:25.327Z,7.50
2018-04-07T08:02:52.911Z,7.33
2018-04-07T08:05:20.860Z,8.30
2018-04-07T08:07:48.487Z,8.43
2018-04-07T08:10:16.116Z,10.17
2018-04-07T08:12:43.724Z,10.80
2018-04-07T08:15:11.569Z,10.20
2018-04-07T08:17:39.144Z,9.10
2018-04-07T08:20:07.779Z,8.90
2018-04-07T08:22:35.355Z,8.20
2018-04-07T08:25:03.163Z,9.40
2018-04-07T08:27:30.784Z,8.63
2018-04-07T08:29:59.859Z,8.03
2018-04-07T08:32:27.460Z,7.83
2018-04-07T08:34:55.069Z,7.37
2018-04-07T08:37:22.688Z,7.83
2018-04-07T08:39:50.263Z,6.93
2018-04-07T08:42:17.859Z,6.73
2018-04-07T08:44:45.467Z,6.53
2018-04-07T08:47:13.044Z,6.77
2018-04-07T08:49:40.638Z,5.50
2018-04-07T08:52:08.211Z,6.20
2018-04-07T08:54:35.812Z,6.60
2018-04-07T08:57:03.383Z,6.27
2018-04-07T08:59:30.985Z,5.73
2018-04-07T09:01:58.595Z,5.70
2018-04-07T09:04:26.165Z,5.60
2018-04-07T09:06:53.772Z,5.93
2018-04-07T09:09:21.340Z,5.23
2018-04-07T09:11:48.939Z,5.53
2018-04-07T09:14:16.511Z,5.40
2018-04-07T09:16:44.115Z,5.63
2018-04-07T09:19:11.745Z,5.03
2018-04-07T09:21:39.315Z,4.93
2018-04-07T09:24:06.924Z,5.00
2018-04-07T09:26:34.494Z,4.47
2018-04-07T09:29:02.092Z,4.93
2018-04-07T09:31:29.664Z,4.97
2018-04-07T09:33:57.323Z,4.27
2018-04-07T09:36:24.929Z,4.87
2018-04-07T09:38:52.506Z,4.93
2018-04-07T09:41:20.116Z,4.40
2018-04-07T09:43:47.736Z,4.47
2018-04-07T09:46:15.363Z,4.43
2018-04-07T09:48:42.941Z,4.23
2018-04-07T09:51:11.311Z,4.87
2018-04-07T09:53:38.915Z,4.53
2018-04-07T09:56:06.492Z,3.93
2018-04-07T09:58:34.099Z,4.50
2018-04-07T10:01:01.707Z,4.23
2018-04-07T10:03:29.324Z,4.20
2018-04-07T10:05:56.896Z,4.50
2018-04-07T10:08:24.503Z,4.90
2018-04-07T10:10:52.116Z,4.77
2018-04-07T10:13:19.692Z,4.43
2018-04-07T10:15:47.291Z,4.23
2018-04-07T10:18:14.859Z,4.53
2018-04-07T10:20:42.462Z,4.30
2018-04-07T10:23:10.036Z,4.63
2018-04-07T10:25:37.666Z,4.03
2018-04-07T10:28:05.272Z,4.90
2018-04-07T10:30:32.844Z,5.37
2018-04-07T10:33:00.496Z,5.63
2018-04-07T10:35:28.834Z,6.50
2018-04-07T10:37:56.435Z,5.73
2018-04-07T10:40:24.016Z,6.83
2018-04-07T10:42:51.628Z,7.00
2018-04-07T10:45:19.472Z,7.83
2018-04-07T10:47:47.072Z,7.53
2018-04-07T10:50:15.064Z,7.43
2018-04-07T10:52:42.709Z,7.47
2018-04-07T10:55:10.259Z,7.77
2018-04-07T10:57:37.836Z,7.23
2018-04-07T11:00:06.630Z,7.60
2018-04-07T11:02:34.975Z,8.57
2018-04-07T11:05:03.339Z,8.13
2018-04-07T11:07:31.709Z,7.90
2018-04-07T11:09:59.290Z,8.10
2018-04-07T11:12:26.899Z,7.77
2018-04-07T11:14:54.468Z,7.83
2018-04-07T11:17:22.085Z,8.13
2018-04-07T11:19:50.432Z,6.50
2018-04-07T11:22:18.060Z,7.53
2018-04-07T11:24:45.676Z,6.80
2018-04-07T11:27:13.252Z,6.93
2018-04-07T11:29:42.367Z,7.40
2018-04-07T11:32:09.940Z,7.63
2018-04-07T11:34:37.543Z,7.53
2018-04-07T11:37:05.125Z,7.43
2018-04-07T11:39:32.743Z,7.43
2018-04-07T11:42:01.084Z,6.77
2018-04-07T11:44:28.687Z,6.57
2018-04-07T11:46:56.256Z,6.10
2018-04-07T11:49:24.619Z,5.90
2018-04-07T11:51:52.219Z,6.97
2018-04-07T11:54:19.818Z,6.23
2018-04-07T11:56:48.193Z,6.17
2018-04-07T11:59:15.763Z,6.40
2018-04-07T12:01:43.364Z,6.40
2018-04-07T12:04:10.937Z,5.70
2018-04-07T12:06:39.272Z,5.57
2018-04-07T12:09:06.880Z,6.10
2018-04-07T12:11:34.473Z,5.70
2018-04-07T12:14:02.345Z,5.80
2018-04-07T12:16:30.111Z,4.87
2018-04-07T12:18:58.450Z,5.47
2018-04-07T12:21:26.055Z,5.37
2018-04-07T12:23:53.624Z,5.30
2018-04-07T12:26:21.232Z,4.90
2018-04-07T12:28:48.807Z,4.50
2018-04-07T12:31:16.416Z,5.13
2018-04-07T12:33:43.987Z,4.10
2018-04-07T12:36:11.596Z,4.87
2018-04-07T12:38:39.164Z,4.60
2018-04-07T12:41:06.771Z,4.13
2018-04-07T12:43:35.307Z,4.20
2018-04-07T12:46:02.880Z,4.17
2018-04-07T12:48:30.480Z,4.30
2018-04-07T12:50:58.260Z,4.70
2018-04-07T12:53:26.663Z,4.67
2018-04-07T12:55:54.240Z,4.10
2018-04-07T12:58:21.875Z,4.17
2018-04-07T13:00:50.244Z,4.30
2018-04-07T13:03:17.815Z,3.90
2018-04-07T13:05:45.423Z,4.30
2018-04-07T13:08:13.006Z,4.23
2018-04-07T13:10:40.620Z,4.03
2018-04-07T13:13:08.979Z,4.17
2018-04-07T13:15:36.583Z,4.03
2018-04-07T13:18:04.185Z,3.20
2018-04-07T13:20:31.783Z,3.80
2018-04-07T13:22:59.410Z,3.90
2018-04-07T13:25:27.785Z,3.83
2018-04-07T13:27:55.387Z,3.70
2018-04-07T13:30:25.696Z,3.70
2018-04-07T13:32:53.304Z,3.70
2018-04-07T13:35:21.120Z,3.40
2018-04-07T13:37:48.692Z,3.50
2018-04-07T13:40:16.299Z,3.60
2018-04-07T13:42:43.867Z,3.40
2018-04-07T13:45:11.734Z,3.37
2018-04-07T13:47:39.309Z,3.10
2018-04-07T13:50:07.119Z,3.23
2018-04-07T13:52:34.724Z,3.10
2018-04-07T13:55:02.928Z,2.83
2018-04-07T13:57:30.540Z,3.00
2018-04-07T13:59:58.115Z,2.90
2018-04-07T14:02:25.727Z,3.33
2018-04-07T14:04:53.296Z,3.00
2018-04-07T14:07:20.899Z,2.77
2018-04-07T14:09:48.481Z,4.33
2018-04-07T14:12:16.092Z,3.43
2018-04-07T14:14:44.464Z,4.20
2018-04-07T14:17:12.031Z,3.93
2018-04-07T14:19:39.639Z,3.90
2018-04-07T14:22:07.207Z,3.43
2018-04-07T14:24:34.812Z,4.17
2018-04-07T14:27:02.472Z,4.60
2018-04-07T14:29:30.076Z,4.03
2018-04-07T14:31:57.684Z,4.77
2018-04-07T14:34:25.260Z,4.30
2018-04-07T14:36:53.335Z,5.93
2018-04-07T14:39:21.756Z,5.17
2018-04-07T14:41:49.359Z,5.97
2018-04-07T14:44:16.936Z,5.43
2018-04-07T14:46:45.338Z,5.37
2018-04-07T14:49:13.700Z,4.30
2018-04-07T14:51:41.279Z,5.23
2018-04-07T14:54:08.883Z,5.10
2018-04-07T14:56:36.455Z,4.63
2018-04-07T14:59:04.056Z,5.47
2018-04-07T15:01:31.627Z,4.80
2018-04-07T15:03:59.340Z,4.83
2018-04-07T15:06:26.943Z,4.70
2018-04-07T15:08:54.515Z,4.70
2018-04-07T15:11:22.132Z,4.33
2018-04-07T15:13:49.712Z,3.53
2018-04-07T15:16:17.323Z,3.93
2018-04-07T15:18:44.892Z,3.87
2018-04-07T15:21:12.500Z,3.97
2018-04-07T15:23:40.114Z,3.80
2018-04-07T15:26:08.448Z,3.87
2018-04-07T15:28:36.055Z,4.07
2018-04-07T15:31:03.623Z,4.20
2018-04-07T15:33:31.227Z,3.97
2018-04-07T15:35:58.847Z,3.50
2018-04-07T15:38:26.479Z,3.50
2018-04-07T15:40:54.848Z,3.50
2018-04-07T15:43:22.420Z,3.83
2018-04-07T15:45:50.033Z,3.57
2018-04-07T15:48:17.607Z,3.10
2018-04-07T15:50:45.210Z,3.20
2018-04-07T15:53:12.816Z,3.10
2018-04-07T15:55:40.390Z,2.90
2018-04-07T15:58:07.990Z,3.30
2018-04-07T16:00:35.567Z,3.90
2018-04-07T16:03:03.171Z,3.03
2018-04-07T16:05:30.769Z,3.60
2018-04-07T16:07:59.197Z,2.90
2018-04-07T16:10:27.559Z,3.00
2018-04-07T16:12:55.164Z,3.13
2018-04-07T16:15:24.157Z,2.83
2018-04-07T16:17:51.734Z,3.27
2018-04-07T16:20:19.732Z,3.10
2018-04-07T16:22:47.299Z,2.97
2018-04-07T16:25:15.773Z,3.30
2018-04-07T16:27:43.332Z,3.07
2018-04-07T16:30:11.226Z,2.97
2018-04-07T16:32:38.896Z,3.20
2018-04-07T16:35:08.297Z,3.17
2018-04-07T16:37:35.931Z,3.03
2018-04-07T16:40:04.256Z,2.87
2018-04-07T16:42:31.855Z,2.60
2018-04-07T16:44:59.428Z,2.90
2018-04-07T16:47:27.052Z,3.00
2018-04-07T16:49:54.629Z,2.40
2018-04-07T16:52:22.243Z,2.43
2018-04-07T16:54:49.880Z,2.33
2018-04-07T16:57:17.450Z,2.67
2018-04-07T16:59:45.062Z,2.43
2018-04-07T17:02:12.644Z,3.20
2018-04-07T17:04:40.245Z,2.70
2018-04-07T17:07:07.822Z,2.90
2018-04-07T17:09:35.423Z,2.53
2018-04-07T17:12:03.090Z,2.77
2018-04-07T17:14:31.431Z,3.07
2018-04-07T17:16:59.035Z,2.43
2018-04-07T17:19:26.612Z,2.90
2018-04-07T17:21:54.216Z,3.47
2018-04-07T17:24:21.800Z,2.80
2018-04-07T17:26:49.404Z,2.70
2018-04-07T17:29:16.987Z,2.73
2018-04-07T17:31:44.585Z,2.80
2018-04-07T17:34:12.192Z,2.60
2018-04-07T17:36:40.095Z,2.60
2018-04-07T17:39:07.696Z,2.50
2018-04-07T17:41:35.263Z,2.53
2018-04-07T17:44:02.869Z,2.47
2018-04-07T17:46:30.439Z,2.67
2018-04-07T17:49:06.099Z,3.03
2018-04-07T17:51:25.665Z,3.40
2018-04-07T17:53:53.268Z,3.80
2018-04-07T17:56:21.640Z,3.97
2018-04-07T17:58:49.210Z,3.90
2018-04-07T18:01:16.807Z,6.40
2018-04-07T18:03:44.385Z,4.93
2018-04-07T18:06:12.045Z,4.33
2018-04-07T18:08:39.588Z,4.67
2018-04-07T18:11:07.188Z,4.80
2018-04-07T18:13:35.568Z,6.37
2018-04-07T18:16:03.143Z,5.60
2018-04-07T18:18:30.747Z,8.03
2018-04-07T18:20:58.328Z,6.97
2018-04-07T18:23:25.936Z,7.87
2018-04-07T18:25:53.560Z,9.30
2018-04-07T18:28:21.931Z,8.87
2018-04-07T18:30:49.539Z,10.80
2018-04-07T18:33:17.899Z,10.23
2018-04-07T18:35:45.516Z,14.23
2018-04-07T18:38:13.102Z,11.70
2018-04-07T18:40:40.739Z,13.23
2018-04-07T18:43:09.089Z,12.07
2018-04-07T18:45:36.698Z,13.40
2018-04-07T18:48:04.279Z,11.90
2018-04-07T18:50:31.889Z,12.30
2018-04-07T18:52:59.533Z,12.33
2018-04-07T18:55:27.117Z,12.00
2018-04-07T18:57:55.492Z,11.50
2018-04-07T19:00:24.752Z,11.13
2018-04-07T19:02:53.180Z,11.90
2018-04-07T19:05:21.086Z,10.87
2018-04-07T19:07:48.738Z,11.00
2018-04-07T19:10:17.140Z,11.50
2018-04-07T19:12:45.568Z,12.37
2018-04-07T19:15:13.370Z,11.80
2018-04-07T19:17:41.719Z,10.87
2018-04-07T19:20:09.603Z,10.57
2018-04-07T19:22:37.209Z,10.97
2018-04-07T19:25:04.818Z,11.10
2018-04-07T19:27:32.432Z,10.23
2018-04-07T19:30:00.823Z,11.13
2018-04-07T19:32:28.431Z,10.63
2018-04-07T19:34:56.788Z,12.87
2018-04-07T19:37:24.400Z,10.93
2018-04-07T19:39:51.976Z,10.23
2018-04-07T19:42:19.586Z,10.40
2018-04-07T19:44:47.196Z,10.97
2018-04-07T19:47:15.544Z,10.93
2018-04-07T19:49:43.157Z,11.20
2018-04-07T19:52:10.775Z,10.20
2018-04-07T19:54:38.416Z,11.47
2018-04-07T19:57:06.760Z,10.47
2018-04-07T19:59:34.372Z,10.47
2018-04-07T20:02:01.975Z,10.53
2018-04-07T20:04:29.555Z,10.07
2018-04-07T20:06:57.180Z,10.23
2018-04-07T20:09:25.556Z,10.07
2018-04-07T20:11:53.164Z,8.90
2018-04-07T20:14:21.546Z,9.37
2018-04-07T20:16:49.152Z,10.20
2018-04-07T20:19:16.884Z,9.33
2018-04-07T20:21:45.228Z,9.00
2018-04-07T20:24:12.836Z,8.60
2018-04-07T20:26:40.444Z,9.10
2018-04-07T20:29:08.786Z,8.37
2018-04-07T20:31:36.389Z,8.00
2018-04-07T20:34:03.959Z,8.00
2018-04-07T20:36:32.400Z,8.47
2018-04-07T20:38:59.983Z,7.70
2018-04-07T20:41:27.587Z,7.73
2018-04-07T20:43:55.196Z,7.73
2018-04-07T20:46:22.797Z,8.00
2018-04-07T20:48:51.180Z,8.00
2018-04-07T20:51:18.772Z,7.30
2018-04-07T20:53:46.414Z,7.23
2018-04-07T20:56:13.988Z,7.13
2018-04-07T20:58:41.599Z,7.90
2018-04-07T21:01:09.205Z,6.80
2018-04-07T21:03:36.784Z,7.10
2018-04-07T21:06:04.379Z,7.67
2018-04-07T21:08:32.038Z,6.73
2018-04-07T21:10:59.663Z,7.80
2018-04-07T21:13:27.235Z,6.87
2018-04-07T21:15:54.837Z,8.13
2018-04-07T21:18:22.443Z,8.00
2018-04-07T21:20:50.024Z,8.50
2018-04-07T21:23:17.628Z,9.53
2018-04-07T21:25:45.202Z,9.27
2018-04-07T21:28:12.812Z,9.00
2018-04-07T21:30:40.419Z,9.27
2018-04-07T21:33:08.763Z,9.20
2018-04-07T21:35:36.392Z,8.93
2018-04-07T21:38:03.983Z,9.27
2018-04-07T21:40:31.591Z,9.50
2018-04-07T21:42:59.211Z,11.13
2018-04-07T21:45:26.811Z,11.87
2018-04-07T21:47:54.392Z,12.37
2018-04-07T21:50:22.000Z,14.30
2018-04-07T21:52:49.636Z,15.43
2018-04-07T21:55:17.216Z,17.27
2018-04-07T21:57:44.824Z,18.17
2018-04-07T22:00:12.411Z,19.23
2018-04-07T22:02:40.020Z,19.30
2018-04-07T22:05:07.603Z,21.33
2018-04-07T22:07:35.212Z,22.70
2018-04-07T22:10:03.616Z,22.83
2018-04-07T22:12:31.993Z,22.83
2018-04-07T22:14:59.604Z,22.77
2018-04-07T22:17:27.975Z,24.17
2018-04-07T22:19:55.596Z,24.87
2018-04-07T22:22:23.944Z,23.37
2018-04-07T22:24:51.584Z,26.73
2018-04-07T22:27:20.008Z,26.13
2018-04-07T22:29:47.616Z,26.40
2018-04-07T22:32:15.226Z,27.60
2018-04-07T22:34:42.807Z,27.13
2018-04-07T22:37:10.412Z,28.07
2018-04-07T22:39:37.992Z,28.33
2018-04-07T22:42:05.624Z,27.77
2018-04-07T22:44:33.235Z,27.60
2018-04-07T22:47:00.828Z,30.00
2018-04-07T22:49:28.444Z,30.33
2018-04-07T22:51:56.020Z,28.20
2018-04-07T22:54:23.636Z,29.67
2018-04-07T22:56:51.986Z,28.63
2018-04-07T22:59:19.610Z,29.33
2018-04-07T23:01:47.226Z,28.63
2018-04-07T23:04:15.571Z,27.97
2018-04-07T23:06:43.180Z,29.20
2018-04-07T23:09:10.768Z,29.33
2018-04-07T23:11:38.384Z,27.27
2018-04-07T23:14:06.732Z,28.37
2018-04-07T23:16:34.335Z,28.67
2018-04-07T23:19:01.947Z,28.47
2018-04-07T23:21:29.530Z,29.37
2018-04-07T23:23:57.139Z,29.93
2018-04-07T23:26:25.482Z,29.83
2018-04-07T23:28:53.128Z,29.57
2018-04-07T23:31:21.472Z,27.83
2018-04-07T23:33:49.075Z,28.80
2018-04-07T23:38:42.726Z,28.37
2018-04-07T23:41:10.336Z,27.23
2018-04-07T23:43:37.916Z,28.30
2018-04-07T23:46:05.528Z,25.90
2018-04-07T23:48:33.871Z,27.43
2018-04-07T23:51:02.247Z,26.20
2018-04-07T23:53:29.827Z,25.07
2018-04-07T23:55:57.433Z,25.33
2018-04-07T23:58:25.040Z,25.03
